createdAt,value
2023-04-15T00:00:57.513Z,7.78
2023-04-15T00:03:24.746Z,8.13
2023-04-15T00:05:52.010Z,7.57
2023-04-15T00:08:19.439Z,6.50
2023-04-15T00:10:46.745Z,8.52
2023-04-15T00:13:13.674Z,8.57
2023-04-15T00:15:40.695Z,7.35
2023-04-15T00:18:10.193Z,7.97
2023-04-15T00:20:37.156Z,7.97
2023-04-15T00:23:04.300Z,7.47
2023-04-15T00:25:31.588Z,8.45
2023-04-15T00:27:58.385Z,7.40
2023-04-15T00:30:26.457Z,7.10
2023-04-15T00:32:53.526Z,7.03
2023-04-15T00:35:21.715Z,8.00
2023-04-15T00:37:50.117Z,7.45
2023-04-15T00:40:19.523Z,7.55
2023-04-15T00:42:47.033Z,6.97
2023-04-15T00:45:14.069Z,6.82
2023-04-15T00:47:44.523Z,8.52
2023-04-15T00:50:12.682Z,7.82
2023-04-15T00:52:40.145Z,7.68
2023-04-15T00:55:08.075Z,8.32
2023-04-15T00:57:36.166Z,7.47
2023-04-15T01:00:04.709Z,7.20
2023-04-15T01:02:32.655Z,7.55
2023-04-15T01:04:59.614Z,8.10
2023-04-15T01:07:26.349Z,7.10
2023-04-15T01:09:53.803Z,8.63
2023-04-15T01:12:20.756Z,8.45
2023-04-15T01:14:48.172Z,8.10
2023-04-15T01:17:14.924Z,8.65
2023-04-15T01:19:42.241Z,7.63
2023-04-15T01:22:09.243Z,8.60
2023-04-15T01:24:38.850Z,8.60
2023-04-15T01:27:06.220Z,8.32
2023-04-15T01:29:35.832Z,8.93
2023-04-15T01:32:02.748Z,8.82
2023-04-15T01:34:29.726Z,8.90
2023-04-15T01:36:56.609Z,8.90
2023-04-15T01:39:23.398Z,8.95
2023-04-15T01:41:50.137Z,9.02
2023-04-15T01:44:16.882Z,9.30
2023-04-15T01:46:43.722Z,9.65
2023-04-15T01:49:10.631Z,10.38
2023-04-15T01:51:37.401Z,10.07
2023-04-15T01:54:04.318Z,9.90
2023-04-15T01:56:31.366Z,9.63
2023-04-15T01:58:58.468Z,9.80
2023-04-15T02:01:27.361Z,9.52
2023-04-15T02:03:54.103Z,10.52
2023-04-15T02:06:20.989Z,10.35
2023-04-15T02:08:48.181Z,11.23
2023-04-15T02:11:15.406Z,10.13
2023-04-15T02:13:42.228Z,10.35
2023-04-15T02:16:19.098Z,9.95
2023-04-15T02:18:47.372Z,10.05
2023-04-15T02:21:14.422Z,10.70
2023-04-15T02:23:41.430Z,10.07
2023-04-15T02:26:08.239Z,9.63
2023-04-15T02:28:35.765Z,9.48
2023-04-15T02:31:09.543Z,9.32
2023-04-15T02:33:37.717Z,9.55
2023-04-15T02:36:04.967Z,9.65
2023-04-15T02:38:31.988Z,9.35
2023-04-15T02:40:59.321Z,11.98
2023-04-15T02:43:26.043Z,9.35
2023-04-15T02:45:53.585Z,10.48
2023-04-15T02:48:21.167Z,9.15
2023-04-15T02:50:49.016Z,8.98
2023-04-15T02:53:17.538Z,9.32
2023-04-15T02:55:44.295Z,8.77
2023-04-15T02:58:11.027Z,9.05
2023-04-15T03:00:37.891Z,9.63
2023-04-15T03:03:06.099Z,9.75
2023-04-15T03:05:33.104Z,10.65
2023-04-15T03:08:01.481Z,9.68
2023-04-15T03:10:28.474Z,10.43
2023-04-15T03:12:55.615Z,9.85
2023-04-15T03:15:23.886Z,9.32
2023-04-15T03:17:52.797Z,11.15
2023-04-15T03:20:19.737Z,9.10
2023-04-15T03:22:48.019Z,9.82
2023-04-15T03:25:14.932Z,10.05
2023-04-15T03:27:42.999Z,10.45
2023-04-15T03:30:11.542Z,10.75
2023-04-15T03:32:39.539Z,9.95
2023-04-15T03:35:08.166Z,9.73
2023-04-15T03:37:34.897Z,9.52
2023-04-15T03:40:02.384Z,10.65
2023-04-15T03:42:29.071Z,10.50
2023-04-15T03:44:55.868Z,10.52
2023-04-15T03:47:22.894Z,10.55
2023-04-15T03:49:49.593Z,13.13
2023-04-15T03:52:16.570Z,11.48
2023-04-15T03:54:43.449Z,11.60
2023-04-15T03:57:10.184Z,11.48
2023-04-15T03:59:36.891Z,12.02
2023-04-15T04:02:03.722Z,11.43
2023-04-15T04:04:30.514Z,12.98
2023-04-15T04:06:57.306Z,11.88
2023-04-15T04:09:24.059Z,12.95
2023-04-15T04:11:50.711Z,12.35
2023-04-15T04:14:17.367Z,11.98
2023-04-15T04:16:44.923Z,12.93
2023-04-15T04:19:13.847Z,13.00
2023-04-15T04:21:40.622Z,14.13
2023-04-15T04:24:07.304Z,13.52
2023-04-15T04:26:33.987Z,13.40
2023-04-15T04:29:00.824Z,14.20
2023-04-15T04:31:28.091Z,12.57
2023-04-15T04:33:54.799Z,14.13
2023-04-15T04:36:21.597Z,14.75
2023-04-15T04:38:48.274Z,13.77
2023-04-15T04:41:14.964Z,13.05
2023-04-15T04:43:41.782Z,13.32
2023-04-15T04:46:08.558Z,13.57
2023-04-15T04:48:35.319Z,14.65
2023-04-15T04:51:02.367Z,15.20
2023-04-15T04:53:29.156Z,15.35
2023-04-15T04:55:55.869Z,15.98
2023-04-15T04:58:22.612Z,17.23
2023-04-15T05:00:49.391Z,15.40
2023-04-15T05:03:16.316Z,18.33
2023-04-15T05:05:43.431Z,18.63
2023-04-15T05:08:10.097Z,17.45
2023-04-15T05:10:36.798Z,17.55
2023-04-15T05:13:03.812Z,18.48
2023-04-15T05:15:30.586Z,18.95
2023-04-15T05:17:57.603Z,19.35
2023-04-15T05:20:24.337Z,18.98
2023-04-15T05:22:51.142Z,19.45
2023-04-15T05:25:17.986Z,18.77
2023-04-15T05:27:44.703Z,20.00
2023-04-15T05:30:13.457Z,19.27
2023-04-15T05:32:40.859Z,19.85
2023-04-15T05:35:08.507Z,19.70
2023-04-15T05:37:35.471Z,20.02
2023-04-15T05:40:02.258Z,21.58
2023-04-15T05:42:29.120Z,18.67
2023-04-15T05:44:56.216Z,17.80
2023-04-15T05:47:22.983Z,17.88
2023-04-15T05:49:49.693Z,15.60
2023-04-15T05:52:16.592Z,15.30
2023-04-15T05:54:43.405Z,17.95
2023-04-15T05:57:10.217Z,18.58
2023-04-15T05:59:36.930Z,18.38
2023-04-15T06:02:03.639Z,17.98
2023-04-15T06:04:30.553Z,18.83
2023-04-15T06:06:57.802Z,19.95
2023-04-15T06:09:24.627Z,22.48
2023-04-15T06:11:52.235Z,20.23
2023-04-15T06:14:18.927Z,24.15
2023-04-15T06:16:45.605Z,21.30
2023-04-15T06:19:12.403Z,24.02
2023-04-15T06:21:39.192Z,26.15
2023-04-15T06:24:06.277Z,24.35
2023-04-15T06:26:33.332Z,24.60
2023-04-15T06:29:00.437Z,26.60
2023-04-15T06:31:27.586Z,25.13
2023-04-15T06:33:54.422Z,27.73
2023-04-15T06:36:21.659Z,23.95
2023-04-15T06:38:48.376Z,42.88
2023-04-15T06:41:15.688Z,76.53
2023-04-15T06:43:42.443Z,40.45
2023-04-15T06:46:09.243Z,23.52
2023-04-15T06:48:35.989Z,31.17
2023-04-15T06:51:04.008Z,29.02
2023-04-15T06:53:30.847Z,20.23
2023-04-15T06:55:57.574Z,23.25
2023-04-15T06:58:24.364Z,22.50
2023-04-15T07:00:51.092Z,20.85
2023-04-15T07:03:18.333Z,25.25
2023-04-15T07:05:45.049Z,23.02
2023-04-15T07:08:12.294Z,28.00
2023-04-15T07:10:39.135Z,19.55
2023-04-15T07:13:07.018Z,20.17
2023-04-15T07:15:33.792Z,18.98
2023-04-15T07:18:00.877Z,23.85
2023-04-15T07:20:27.711Z,21.92
2023-04-15T07:22:54.877Z,18.48
2023-04-15T07:25:21.785Z,20.90
2023-04-15T07:27:48.564Z,21.33
2023-04-15T07:30:15.948Z,17.50
2023-04-15T07:32:43.101Z,19.60
2023-04-15T07:35:10.686Z,17.60
2023-04-15T07:37:37.569Z,18.27
2023-04-15T07:40:05.583Z,18.45
2023-04-15T07:42:32.860Z,26.08
2023-04-15T07:44:59.638Z,21.40
2023-04-15T07:47:27.078Z,31.35
2023-04-15T07:49:53.793Z,21.05
2023-04-15T07:52:20.488Z,18.45
2023-04-15T07:54:47.236Z,16.73
2023-04-15T07:57:13.895Z,38.63
2023-04-15T07:59:40.685Z,19.40
2023-04-15T08:02:08.383Z,18.77
2023-04-15T08:04:35.399Z,19.90
2023-04-15T08:07:02.469Z,17.42
2023-04-15T08:09:29.287Z,17.92
2023-04-15T08:11:57.083Z,17.85
2023-04-15T08:14:24.672Z,16.67
2023-04-15T08:16:51.459Z,17.42
2023-04-15T08:19:18.265Z,16.92
2023-04-15T08:21:44.989Z,19.33
2023-04-15T08:24:12.257Z,19.05
2023-04-15T08:26:38.963Z,18.70
2023-04-15T08:29:05.629Z,17.92
2023-04-15T08:31:32.397Z,20.10
2023-04-15T08:33:59.540Z,18.33
2023-04-15T08:36:27.047Z,67.75
2023-04-15T08:38:53.843Z,66.55
2023-04-15T08:41:25.292Z,26.10
2023-04-15T08:43:54.980Z,28.88
2023-04-15T08:46:22.707Z,15.75
2023-04-15T08:48:50.192Z,15.38
2023-04-15T08:51:18.166Z,12.95
2023-04-15T08:53:46.428Z,16.25
2023-04-15T08:56:15.459Z,26.73
2023-04-15T08:58:44.807Z,16.02
2023-04-15T09:01:14.781Z,13.18
2023-04-15T09:03:42.454Z,14.63
2023-04-15T09:06:09.354Z,14.23
2023-04-15T09:08:36.075Z,14.25
2023-04-15T09:11:03.636Z,13.85
2023-04-15T09:13:30.875Z,13.02
2023-04-15T09:15:58.455Z,15.80
2023-04-15T09:18:32.529Z,15.75
2023-04-15T09:21:11.359Z,14.88
2023-04-15T09:23:39.652Z,13.02
2023-04-15T09:26:07.031Z,13.18
2023-04-15T09:28:40.942Z,13.30
2023-04-15T09:31:07.844Z,15.77
2023-04-15T09:33:34.863Z,13.70
2023-04-15T09:36:04.686Z,14.63
2023-04-15T09:38:32.255Z,16.98
2023-04-15T09:40:59.472Z,14.30
2023-04-15T09:43:39.951Z,14.57
2023-04-15T09:46:06.881Z,13.23
2023-04-15T09:48:33.606Z,15.05
2023-04-15T09:51:01.456Z,14.07
2023-04-15T09:53:31.180Z,12.98
2023-04-15T09:56:02.847Z,14.00
2023-04-15T09:58:33.579Z,14.48
2023-04-15T10:01:03.142Z,14.48
2023-04-15T10:03:32.331Z,15.18
2023-04-15T10:06:00.942Z,14.60
2023-04-15T10:08:32.878Z,15.85
2023-04-15T10:11:01.980Z,11.88
2023-04-15T10:13:33.367Z,11.32
2023-04-15T10:16:11.830Z,9.60
2023-04-15T10:18:42.788Z,9.70
2023-04-15T10:21:10.177Z,9.90
2023-04-15T10:23:38.307Z,8.00
2023-04-15T10:26:06.093Z,8.80
2023-04-15T10:28:32.858Z,7.45
2023-04-15T10:31:00.206Z,7.15
2023-04-15T10:33:28.679Z,6.25
2023-04-15T10:35:56.461Z,6.13
2023-04-15T10:38:41.639Z,6.18
2023-04-15T10:41:18.690Z,6.20
2023-04-15T10:44:01.096Z,6.50
2023-04-15T10:46:40.124Z,6.55
2023-04-15T10:49:12.838Z,7.32
2023-04-15T10:51:51.029Z,6.70
2023-04-15T10:54:26.766Z,7.97
2023-04-15T10:57:05.884Z,7.65
2023-04-15T10:59:36.047Z,7.10
2023-04-15T11:02:07.571Z,6.32
2023-04-15T11:04:59.832Z,8.32
2023-04-15T11:07:44.736Z,5.03
2023-04-15T11:10:14.201Z,5.68
2023-04-15T11:12:41.856Z,6.90
2023-04-15T11:15:27.283Z,7.72
2023-04-15T11:17:54.138Z,5.93
2023-04-15T11:20:21.199Z,5.70
2023-04-15T11:22:52.448Z,6.30
2023-04-15T11:25:37.607Z,6.60
2023-04-15T11:28:06.005Z,5.75
2023-04-15T11:30:35.009Z,6.40
2023-04-15T11:33:06.804Z,6.05
2023-04-15T11:35:34.490Z,6.40
2023-04-15T11:38:06.110Z,6.70
2023-04-15T11:40:35.792Z,7.63
2023-04-15T11:43:05.689Z,7.18
2023-04-15T11:45:32.589Z,8.38
2023-04-15T11:48:10.526Z,8.65
2023-04-15T11:50:40.565Z,6.35
2023-04-15T11:53:09.254Z,7.82
2023-04-15T11:55:50.429Z,7.90
2023-04-15T11:58:18.590Z,9.10
2023-04-15T12:00:54.093Z,8.73
2023-04-15T12:03:36.224Z,9.02
2023-04-15T12:06:25.398Z,8.73
2023-04-15T12:08:52.720Z,8.73
2023-04-15T12:11:32.990Z,10.07
2023-04-15T12:14:30.312Z,9.57
2023-04-15T12:17:02.136Z,10.32
2023-04-15T12:19:29.300Z,11.38
2023-04-15T12:22:04.168Z,11.07
2023-04-15T12:24:35.536Z,10.15
2023-04-15T12:27:04.061Z,10.43
2023-04-15T12:29:31.544Z,11.43
2023-04-15T12:32:12.876Z,11.00
2023-04-15T12:34:40.848Z,10.45
2023-04-15T12:37:12.171Z,11.30
2023-04-15T12:39:41.135Z,11.45
2023-04-15T12:42:09.166Z,12.30
2023-04-15T12:44:37.021Z,11.50
2023-04-15T12:47:04.290Z,14.70
2023-04-15T12:49:32.468Z,12.55
2023-04-15T12:52:01.205Z,14.90
2023-04-15T12:54:28.833Z,15.38
2023-04-15T12:56:56.619Z,19.27
2023-04-15T12:59:26.735Z,16.05
2023-04-15T13:01:54.062Z,15.98
2023-04-15T13:04:21.919Z,17.00
2023-04-15T13:06:49.149Z,13.45
2023-04-15T13:09:15.950Z,17.77
2023-04-15T13:11:42.892Z,18.17
2023-04-15T13:14:11.680Z,19.55
2023-04-15T13:16:38.829Z,17.85
2023-04-15T13:19:05.563Z,18.73
2023-04-15T13:21:35.497Z,21.27
2023-04-15T13:24:04.263Z,23.10
2023-04-15T13:26:31.675Z,24.52
2023-04-15T13:28:58.629Z,21.98
2023-04-15T13:31:25.471Z,23.75
2023-04-15T13:33:52.262Z,27.40
2023-04-15T13:36:19.246Z,22.55
2023-04-15T13:38:46.749Z,22.30
2023-04-15T13:41:14.331Z,27.25
2023-04-15T13:43:41.541Z,23.15
2023-04-15T13:46:08.727Z,25.42
2023-04-15T13:48:36.087Z,24.73
2023-04-15T13:51:02.880Z,27.52
2023-04-15T13:53:33.925Z,25.35
2023-04-15T13:56:06.908Z,24.52
2023-04-15T13:58:33.712Z,56.70
2023-04-15T14:01:01.198Z,107.13
2023-04-15T14:03:28.940Z,119.30
2023-04-15T14:05:56.949Z,44.10
2023-04-15T14:08:25.010Z,34.95
2023-04-15T14:10:51.741Z,29.50
2023-04-15T14:13:19.540Z,28.42
2023-04-15T14:15:46.874Z,46.00
2023-04-15T14:18:13.632Z,32.83
2023-04-15T14:20:40.465Z,42.47
2023-04-15T14:23:07.743Z,28.80
2023-04-15T14:25:34.518Z,28.88
2023-04-15T14:28:02.315Z,26.65
2023-04-15T14:30:29.140Z,28.60
2023-04-15T14:32:56.075Z,29.42
2023-04-15T14:35:24.637Z,30.83
2023-04-15T14:37:51.513Z,31.73
2023-04-15T14:40:18.340Z,31.77
2023-04-15T14:42:46.484Z,35.53
2023-04-15T14:45:13.275Z,33.88
2023-04-15T14:47:39.984Z,32.72
2023-04-15T14:50:07.236Z,35.28
2023-04-15T14:52:38.622Z,29.63
2023-04-15T14:55:07.486Z,34.25
2023-04-15T14:57:34.182Z,32.72
2023-04-15T15:00:00.837Z,33.35
2023-04-15T15:02:38.114Z,32.63
2023-04-15T15:05:06.717Z,30.02
2023-04-15T15:07:33.766Z,29.30
2023-04-15T15:10:00.458Z,27.88
2023-04-15T15:12:27.164Z,31.15
2023-04-15T15:14:55.988Z,30.05
2023-04-15T15:17:22.827Z,31.05
2023-04-15T15:19:49.584Z,30.95
2023-04-15T15:22:18.040Z,26.65
2023-04-15T15:24:45.734Z,28.10
2023-04-15T15:27:12.492Z,26.25
2023-04-15T15:29:39.638Z,25.35
2023-04-15T15:32:06.487Z,26.20
2023-04-15T15:34:33.185Z,27.50
2023-04-15T15:37:00.821Z,29.17
2023-04-15T15:39:27.867Z,25.80
2023-04-15T15:41:54.976Z,22.85
2023-04-15T15:44:21.856Z,23.60
2023-04-15T15:46:49.971Z,22.70
2023-04-15T15:49:16.816Z,22.92
2023-04-15T15:51:43.684Z,23.15
2023-04-15T15:54:10.402Z,26.63
2023-04-15T15:56:39.230Z,26.52
2023-04-15T15:59:06.109Z,24.63
2023-04-15T16:01:33.073Z,27.17
2023-04-15T16:04:00.153Z,38.67
2023-04-15T16:06:27.094Z,29.13
2023-04-15T16:08:53.830Z,30.20
2023-04-15T16:11:20.820Z,33.20
2023-04-15T16:13:47.560Z,35.00
2023-04-15T16:16:14.478Z,33.55
2023-04-15T16:18:41.286Z,36.60
2023-04-15T16:21:08.923Z,36.65
2023-04-15T16:23:36.678Z,37.47
2023-04-15T16:26:03.753Z,39.35
2023-04-15T16:28:30.599Z,35.50
2023-04-15T16:30:57.407Z,39.53
2023-04-15T16:33:24.209Z,38.05
2023-04-15T16:35:51.594Z,36.63
2023-04-15T16:38:18.289Z,39.35
2023-04-15T16:40:45.708Z,38.60
2023-04-15T16:43:12.517Z,36.65
2023-04-15T16:45:39.275Z,37.88
2023-04-15T16:48:06.354Z,39.88
2023-04-15T16:50:33.156Z,36.13
2023-04-15T16:52:59.830Z,35.25
2023-04-15T16:55:27.141Z,37.20
2023-04-15T16:58:03.251Z,34.25
2023-04-15T17:00:32.837Z,36.80
2023-04-15T17:03:00.583Z,41.58
2023-04-15T17:05:27.796Z,37.90
2023-04-15T17:07:55.397Z,37.90
2023-04-15T17:10:22.816Z,44.00
2023-04-15T17:12:51.894Z,36.75
2023-04-15T17:15:19.576Z,60.97
2023-04-15T17:17:46.447Z,66.88
2023-04-15T17:20:13.302Z,39.70
2023-04-15T17:22:40.065Z,40.30
2023-04-15T17:25:07.260Z,39.20
2023-04-15T17:27:34.040Z,36.50
2023-04-15T17:30:00.842Z,41.83
2023-04-15T17:32:34.301Z,41.65
2023-04-15T17:35:05.507Z,43.38
2023-04-15T17:37:33.496Z,41.85
2023-04-15T17:40:00.563Z,44.20
2023-04-15T17:42:27.320Z,44.25
2023-04-15T17:44:54.025Z,40.45
2023-04-15T17:47:20.774Z,41.42
2023-04-15T17:49:47.739Z,42.28
2023-04-15T17:52:14.571Z,44.10
2023-04-15T17:54:41.477Z,47.80
2023-04-15T17:57:09.203Z,44.97
2023-04-15T17:59:35.901Z,47.17
2023-04-15T18:02:04.179Z,41.95
2023-04-15T18:06:57.737Z,60.53
2023-04-15T18:09:24.478Z,44.30
2023-04-15T18:11:51.201Z,43.30
2023-04-15T18:14:33.045Z,46.25
2023-04-15T18:17:04.783Z,69.00
2023-04-15T18:19:32.037Z,67.35
2023-04-15T18:22:00.127Z,44.78
2023-04-15T18:24:27.231Z,52.85
2023-04-15T18:26:54.168Z,49.40
2023-04-15T18:29:20.920Z,44.97
2023-04-15T18:31:47.836Z,49.50
2023-04-15T18:34:14.575Z,44.85
2023-04-15T18:36:41.460Z,46.08
2023-04-15T18:39:08.461Z,42.65
2023-04-15T18:41:35.286Z,44.13
2023-04-15T18:44:02.067Z,43.35
2023-04-15T18:46:29.202Z,43.67
2023-04-15T18:48:55.935Z,36.10
2023-04-15T18:51:22.632Z,44.83
2023-04-15T18:53:49.354Z,45.10
2023-04-15T18:56:16.119Z,41.63
2023-04-15T18:59:26.318Z,43.38
2023-04-15T19:01:31.410Z,42.03
2023-04-15T19:03:58.284Z,40.00
2023-04-15T19:06:26.703Z,42.25
2023-04-15T19:08:53.451Z,39.63
2023-04-15T19:11:20.281Z,39.92
2023-04-15T19:13:47.055Z,43.63
2023-04-15T19:16:13.804Z,42.30
2023-04-15T19:18:40.630Z,41.33
2023-04-15T19:21:07.371Z,43.08
2023-04-15T19:23:34.124Z,43.03
2023-04-15T19:26:00.944Z,43.60
2023-04-15T19:28:28.325Z,38.05
2023-04-15T19:30:55.367Z,42.72
2023-04-15T19:33:22.204Z,42.55
2023-04-15T19:35:50.138Z,46.72
2023-04-15T19:38:17.288Z,47.17
2023-04-15T19:40:44.231Z,45.08
2023-04-15T19:43:10.968Z,44.72
2023-04-15T19:45:37.775Z,46.40
2023-04-15T19:48:06.095Z,52.28
2023-04-15T19:50:32.982Z,45.08
2023-04-15T19:52:59.774Z,46.70
2023-04-15T19:55:26.480Z,48.53
2023-04-15T19:57:53.382Z,47.38
2023-04-15T20:00:20.283Z,47.80
2023-04-15T20:02:47.231Z,47.38
2023-04-15T20:05:14.355Z,49.78
2023-04-15T20:07:42.532Z,48.13
2023-04-15T20:10:13.002Z,48.03
2023-04-15T20:12:51.328Z,49.13
2023-04-15T20:15:20.635Z,52.30
2023-04-15T20:17:47.505Z,51.15
2023-04-15T20:20:14.334Z,52.08
2023-04-15T20:22:41.396Z,50.65
2023-04-15T20:25:09.129Z,53.67
2023-04-15T20:27:35.917Z,51.50
2023-04-15T20:30:04.852Z,49.25
2023-04-15T20:32:35.893Z,51.72
2023-04-15T20:35:04.189Z,50.05
2023-04-15T20:37:33.044Z,49.78
2023-04-15T20:40:00.688Z,51.08
2023-04-15T20:42:27.550Z,45.60
2023-04-15T20:44:54.412Z,45.75
2023-04-15T20:47:21.428Z,42.67
2023-04-15T20:49:48.229Z,42.63
2023-04-15T20:52:15.168Z,40.72
2023-04-15T20:54:41.944Z,41.60
2023-04-15T20:57:08.975Z,42.70
2023-04-15T20:59:36.046Z,41.15
2023-04-15T21:02:02.942Z,39.65
2023-04-15T21:04:29.893Z,40.75
2023-04-15T21:06:56.583Z,37.90
2023-04-15T21:09:23.253Z,40.88
2023-04-15T21:14:19.944Z,38.65
2023-04-15T21:16:46.835Z,39.97
2023-04-15T21:19:13.736Z,37.17
2023-04-15T21:21:40.642Z,37.88
2023-04-15T21:24:10.230Z,36.38
2023-04-15T21:26:36.972Z,35.75
2023-04-15T21:29:04.009Z,35.78
2023-04-15T21:31:30.880Z,34.97
2023-04-15T21:33:57.655Z,40.65
2023-04-15T21:36:24.438Z,41.10
2023-04-15T21:38:51.228Z,38.38
2023-04-15T21:41:17.946Z,40.08
2023-04-15T21:43:44.799Z,43.97
2023-04-15T21:46:23.145Z,45.53
2023-04-15T21:48:54.812Z,42.13
2023-04-15T21:51:21.541Z,40.83
2023-04-15T21:53:48.246Z,42.65
2023-04-15T21:56:14.966Z,38.85
2023-04-15T21:58:41.725Z,35.33
2023-04-15T22:01:08.576Z,43.92
2023-04-15T22:03:35.712Z,37.60
2023-04-15T22:06:03.725Z,37.35
2023-04-15T22:08:41.341Z,35.90
2023-04-15T22:11:28.184Z,31.75
2023-04-15T22:13:58.974Z,29.05
2023-04-15T22:16:26.744Z,43.47
2023-04-15T22:18:54.468Z,30.98
2023-04-15T22:21:21.316Z,29.40
2023-04-15T22:23:49.216Z,43.38
2023-04-15T22:26:16.122Z,32.30
2023-04-15T22:28:42.827Z,30.48
2023-04-15T22:31:10.076Z,34.83
2023-04-15T22:33:38.683Z,36.45
2023-04-15T22:36:05.774Z,34.17
2023-04-15T22:38:32.605Z,30.67
2023-04-15T22:40:59.487Z,31.00
2023-04-15T22:43:27.364Z,29.75
2023-04-15T22:45:54.792Z,31.77
2023-04-15T22:48:21.770Z,32.10
2023-04-15T22:50:48.903Z,32.03
2023-04-15T22:53:17.347Z,30.45
2023-04-15T22:55:48.287Z,31.08
2023-04-15T22:58:16.188Z,27.63
2023-04-15T23:00:43.193Z,30.92
2023-04-15T23:03:10.134Z,30.25
2023-04-15T23:05:37.294Z,27.98
2023-04-15T23:08:04.064Z,27.80
2023-04-15T23:10:30.849Z,28.35
2023-04-15T23:12:57.729Z,26.20
2023-04-15T23:15:24.951Z,25.75
2023-04-15T23:17:51.816Z,24.95
2023-04-15T23:20:18.788Z,26.00
2023-04-15T23:22:45.647Z,25.90
2023-04-15T23:25:12.501Z,28.23
2023-04-15T23:27:39.280Z,25.88
2023-04-15T23:30:06.998Z,28.65
2023-04-15T23:32:34.008Z,34.53
2023-04-15T23:35:01.013Z,32.55
2023-04-15T23:37:29.760Z,31.70
2023-04-15T23:39:56.646Z,29.33
2023-04-15T23:42:24.135Z,30.65
2023-04-15T23:44:51.083Z,32.92
2023-04-15T23:47:17.827Z,30.48
2023-04-15T23:49:44.600Z,28.65
2023-04-15T23:52:11.585Z,29.17
2023-04-15T23:54:38.348Z,29.02
2023-04-15T23:57:05.250Z,27.98
2023-04-15T23:59:31.947Z,27.05
